createdAt,value
2022-11-04T00:02:44.985Z,97243.00
2022-11-04T00:05:50.243Z,97238.13
2022-11-04T00:08:56.651Z,97238.41
2022-11-04T00:12:18.864Z,97230.34
2022-11-04T00:15:40.360Z,97222.50
2022-11-04T00:18:47.246Z,97232.44
2022-11-04T00:22:10.112Z,97239.56
2022-11-04T00:25:32.909Z,97240.69
2022-11-04T00:28:47.365Z,97252.09
2022-11-04T00:32:08.941Z,97251.22
2022-11-04T00:35:16.709Z,97252.59
2022-11-04T00:38:22.430Z,97253.09
2022-11-04T00:41:31.156Z,97245.53
2022-11-04T00:44:37.014Z,97242.53
2022-11-04T00:47:43.834Z,97250.19
2022-11-04T00:50:54.866Z,97249.03
2022-11-04T00:54:00.934Z,97254.00
2022-11-04T00:57:05.757Z,97254.91
2022-11-04T01:00:11.718Z,97266.16
2022-11-04T01:03:16.828Z,97267.03
2022-11-04T01:06:24.030Z,97257.50
2022-11-04T01:09:28.747Z,97266.47
2022-11-04T01:12:33.257Z,97262.38
2022-11-04T01:15:39.115Z,97266.84
2022-11-04T01:18:44.194Z,97270.72
2022-11-04T01:21:53.075Z,97284.63
2022-11-04T01:24:58.527Z,97279.75
2022-11-04T01:28:03.286Z,97281.25
2022-11-04T01:31:09.049Z,97273.59
2022-11-04T01:34:14.249Z,97272.91
2022-11-04T01:37:20.421Z,97272.81
2022-11-04T01:40:24.953Z,97281.97
2022-11-04T01:43:46.367Z,97277.22
2022-11-04T01:46:54.969Z,97288.03
2022-11-04T01:50:05.416Z,97292.41
2022-11-04T01:53:16.896Z,97288.63
2022-11-04T01:56:21.685Z,97286.72
2022-11-04T01:59:29.963Z,97278.78
2022-11-04T02:02:35.125Z,97277.31
2022-11-04T02:05:40.623Z,97274.91
2022-11-04T02:08:47.556Z,97276.22
2022-11-04T02:12:09.057Z,97262.09
2022-11-04T02:15:13.915Z,97262.09
2022-11-04T02:18:40.794Z,97255.94
2022-11-04T02:22:15.657Z,97247.47
2022-11-04T02:26:11.816Z,97255.53
2022-11-04T02:29:48.150Z,97267.69
2022-11-04T02:33:17.125Z,97266.47
2022-11-04T02:36:32.828Z,97269.06
2022-11-04T02:39:47.613Z,97274.03
2022-11-04T02:42:58.549Z,97261.19
2022-11-04T02:46:09.062Z,97261.31
2022-11-04T02:49:16.660Z,97269.16
2022-11-04T02:52:28.058Z,97263.19
2022-11-04T02:55:39.377Z,97276.09
2022-11-04T02:58:49.676Z,97284.03
2022-11-04T03:01:58.521Z,97275.03
2022-11-04T03:05:08.957Z,97283.97
2022-11-04T03:08:18.712Z,97284.75
2022-11-04T03:11:25.594Z,97274.91
2022-11-04T03:14:37.880Z,97255.16
2022-11-04T03:17:51.222Z,97262.88
2022-11-04T03:21:00.659Z,97260.69
2022-11-04T03:24:06.535Z,97279.09
2022-11-04T03:27:18.153Z,97293.66
2022-11-04T03:30:25.727Z,97296.34
2022-11-04T03:33:40.242Z,97297.03
2022-11-04T03:36:44.871Z,97307.25
2022-11-04T03:39:49.373Z,97313.47
2022-11-04T03:42:58.957Z,97313.06
2022-11-04T03:46:03.822Z,97317.63
2022-11-04T03:49:11.528Z,97329.31
2022-11-04T03:52:16.965Z,97333.41
2022-11-04T03:55:23.449Z,97334.63
2022-11-04T03:58:39.330Z,97332.13
2022-11-04T04:01:52.405Z,97339.47
2022-11-04T04:05:01.860Z,97340.94
2022-11-04T04:08:18.101Z,97344.25
2022-11-04T04:11:31.563Z,97336.34
2022-11-04T04:14:41.329Z,97345.47
2022-11-04T04:17:52.637Z,97340.47
2022-11-04T04:21:01.791Z,97339.97
2022-11-04T04:24:25.923Z,97327.81
2022-11-04T04:27:33.698Z,97331.53
2022-11-04T04:30:39.065Z,97319.81
2022-11-04T04:33:43.713Z,97317.72
2022-11-04T04:36:54.608Z,97346.38
2022-11-04T04:40:23.916Z,97356.00
2022-11-04T04:43:48.062Z,97346.72
2022-11-04T04:46:56.669Z,97348.59
2022-11-04T04:50:02.737Z,97344.41
2022-11-04T04:53:09.736Z,97350.03
2022-11-04T04:56:14.646Z,97340.47
2022-11-04T04:59:19.503Z,97323.09
2022-11-04T05:02:25.029Z,97295.91
2022-11-04T05:05:29.620Z,97295.91
2022-11-04T05:08:36.953Z,97275.59
2022-11-04T05:11:41.746Z,97256.59
2022-11-04T05:14:46.612Z,97257.09
2022-11-04T05:17:56.156Z,97260.50
2022-11-04T05:21:00.665Z,97265.63
2022-11-04T05:24:07.910Z,97253.91
2022-11-04T05:27:13.182Z,97256.34
2022-11-04T05:30:18.131Z,97266.31
2022-11-04T05:33:25.044Z,97276.50
2022-11-04T05:36:29.744Z,97287.50
2022-11-04T05:39:35.998Z,97285.91
2022-11-04T05:42:43.449Z,97288.13
2022-11-04T05:45:47.955Z,97297.78
2022-11-04T05:48:53.200Z,97303.72
2022-11-04T05:51:58.904Z,97307.53
2022-11-04T05:55:05.286Z,97309.44
2022-11-04T05:58:10.751Z,97303.88
2022-11-04T06:01:24.925Z,97299.09
2022-11-04T06:04:31.802Z,97280.84
2022-11-04T06:07:36.540Z,97283.53
2022-11-04T06:10:42.505Z,97277.66
2022-11-04T06:13:47.288Z,97272.31
2022-11-04T06:16:51.892Z,97276.06
2022-11-04T06:19:56.823Z,97286.47
2022-11-04T06:23:01.723Z,97299.31
2022-11-04T06:26:08.307Z,97299.88
2022-11-04T06:29:13.456Z,97311.38
2022-11-04T06:32:20.373Z,97326.31
2022-11-04T06:35:25.254Z,97327.19
2022-11-04T06:38:32.710Z,97324.78
2022-11-04T06:41:38.711Z,97314.00
2022-11-04T06:44:43.741Z,97330.25
2022-11-04T06:47:49.862Z,97332.38
2022-11-04T06:50:55.418Z,97335.34
2022-11-04T06:54:00.383Z,97330.25
2022-11-04T06:57:07.132Z,97332.94
2022-11-04T07:00:13.601Z,97336.94
2022-11-04T07:03:19.000Z,97334.53
2022-11-04T07:06:24.529Z,97337.16
2022-11-04T07:09:29.293Z,97332.53
2022-11-04T07:12:35.929Z,97335.97
2022-11-04T07:15:41.153Z,97331.38
2022-11-04T07:18:45.601Z,97327.31
2022-11-04T07:21:55.414Z,97313.91
2022-11-04T07:25:05.706Z,97303.13
2022-11-04T07:29:00.362Z,97299.41
2022-11-04T08:00:29.616Z,97299.59
2022-11-04T08:03:57.639Z,97288.94
2022-11-04T08:11:48.871Z,97281.59
2022-11-04T08:15:35.640Z,97277.66
2022-11-04T08:23:16.238Z,97279.19
2022-11-04T08:26:43.327Z,97273.06
2022-11-04T08:57:57.856Z,97308.50
2022-11-04T09:34:15.003Z,97328.09
2022-11-04T10:15:43.364Z,97292.00
2022-11-04T10:19:28.994Z,97282.38
2022-11-04T10:23:05.203Z,97294.88
2022-11-04T10:27:34.535Z,97290.00
2022-11-04T10:31:02.179Z,97289.66
2022-11-04T10:34:46.832Z,97283.78
2022-11-04T10:38:44.016Z,97290.72
2022-11-04T10:42:29.826Z,97287.53
2022-11-04T10:46:00.873Z,97287.38
2022-11-04T10:57:13.767Z,97278.22
2022-11-04T11:04:44.122Z,97278.84
2022-11-04T11:08:20.172Z,97277.25
2022-11-04T11:12:48.648Z,97274.09
2022-11-04T11:16:08.043Z,97263.59
2022-11-04T11:19:41.244Z,97271.00
2022-11-04T11:23:21.053Z,97259.44
2022-11-04T11:33:54.139Z,97251.09
2022-11-04T11:37:52.982Z,97256.53
2022-11-04T11:45:37.019Z,97247.19
2022-11-04T12:02:08.632Z,97236.56
2022-11-04T12:09:44.348Z,97233.59
2022-11-04T12:34:24.944Z,97238.38
2022-11-04T12:42:41.825Z,97241.47
2022-11-04T12:46:29.343Z,97253.06
2022-11-04T12:54:38.769Z,97259.63
2022-11-04T12:58:37.420Z,97254.56
2022-11-04T13:05:58.968Z,97258.97
2022-11-04T13:09:54.130Z,97262.75
2022-11-04T13:13:25.539Z,97266.06
2022-11-04T13:17:08.381Z,97270.47
2022-11-04T13:21:02.500Z,97276.63
2022-11-04T13:28:21.902Z,97275.41
2022-11-04T13:32:06.728Z,97278.22
2022-11-04T13:35:32.246Z,97286.25
2022-11-04T13:43:30.761Z,97290.56
2022-11-04T13:47:20.690Z,97293.63
2022-11-04T13:50:52.315Z,97296.47
2022-11-04T13:54:23.089Z,97305.47
2022-11-04T14:01:40.711Z,97297.53
2022-11-04T14:15:13.915Z,97313.38
2022-11-04T14:22:35.029Z,97327.28
2022-11-04T14:29:52.560Z,97335.34
2022-11-04T14:32:58.163Z,97335.84
2022-11-04T14:36:30.927Z,97329.28
2022-11-04T14:39:37.948Z,97333.66
2022-11-04T14:42:47.325Z,97352.44
2022-11-04T14:45:51.543Z,97347.28
2022-11-04T14:48:57.054Z,97348.38
2022-11-04T14:51:59.982Z,97347.38
2022-11-04T14:55:06.627Z,97352.56
2022-11-04T14:58:23.811Z,97349.06
2022-11-04T15:01:34.663Z,97356.44
2022-11-04T15:04:37.992Z,97356.44
2022-11-04T15:07:41.290Z,97361.31
2022-11-04T15:10:43.948Z,97365.16
2022-11-04T15:13:49.311Z,97368.34
2022-11-04T15:16:55.982Z,97374.28
2022-11-04T15:20:01.764Z,97373.72
2022-11-04T15:23:08.135Z,97374.78
2022-11-04T15:26:26.476Z,97375.91
2022-11-04T15:29:32.045Z,97372.81
2022-11-04T15:32:36.120Z,97379.38
2022-11-04T15:35:43.340Z,97373.00
2022-11-04T15:38:50.189Z,97378.19
2022-11-04T15:42:15.931Z,97382.94
2022-11-04T15:45:31.645Z,97383.41
2022-11-04T15:48:37.839Z,97384.88
2022-11-04T15:51:42.621Z,97393.03
2022-11-04T15:54:48.437Z,97388.53
2022-11-04T15:57:52.203Z,97398.81
2022-11-04T16:00:55.991Z,97392.19
2022-11-04T16:04:02.660Z,97403.97
2022-11-04T16:07:21.416Z,97402.19
2022-11-04T16:10:30.064Z,97403.91
2022-11-04T16:13:33.104Z,97403.19
2022-11-04T16:16:35.960Z,97406.78
2022-11-04T16:19:40.208Z,97410.53
2022-11-04T16:22:44.122Z,97409.72
2022-11-04T16:25:46.845Z,97404.97
2022-11-04T16:28:54.806Z,97414.81
2022-11-04T16:32:18.457Z,97421.25
2022-11-04T16:35:24.754Z,97422.56
2022-11-04T16:38:27.425Z,97418.34
2022-11-04T16:41:33.062Z,97428.78
2022-11-04T16:44:35.739Z,97434.22
2022-11-04T16:47:40.883Z,97439.28
2022-11-04T16:50:45.195Z,97441.97
2022-11-04T16:53:49.744Z,97453.25
2022-11-04T16:56:52.508Z,97456.22
2022-11-04T16:59:56.556Z,97462.91
2022-11-04T17:02:59.367Z,97460.50
2022-11-04T17:06:03.319Z,97470.34
2022-11-04T17:09:13.677Z,97469.56
2022-11-04T17:12:16.344Z,97469.06
2022-11-04T17:15:19.227Z,97477.38
2022-11-04T17:18:21.836Z,97483.53
2022-11-04T17:21:26.289Z,97486.22
2022-11-04T17:24:29.210Z,97489.41
2022-11-04T17:27:31.818Z,97498.53
2022-11-04T17:30:35.051Z,97496.13
2022-11-04T17:33:37.717Z,97503.91
2022-11-04T17:36:41.759Z,97514.53
2022-11-04T17:39:44.408Z,97522.06
2022-11-04T17:43:11.298Z,97518.06
2022-11-04T17:46:32.637Z,97518.84
2022-11-04T17:49:37.169Z,97526.00
2022-11-04T17:52:42.117Z,97526.59
2022-11-04T17:55:44.837Z,97526.22
2022-11-04T17:58:48.181Z,97537.44
2022-11-04T18:01:51.002Z,97537.22
2022-11-04T18:04:53.782Z,97548.03
2022-11-04T18:07:58.470Z,97539.53
2022-11-04T18:11:02.708Z,97554.81
2022-11-04T18:14:05.695Z,97556.09
2022-11-04T18:17:08.339Z,97564.44
2022-11-04T18:20:14.738Z,97568.72
2022-11-04T18:23:18.730Z,97570.31
2022-11-04T18:26:21.385Z,97576.25
2022-11-04T18:29:24.139Z,97573.28
2022-11-04T18:32:26.820Z,97576.25
2022-11-04T18:35:29.696Z,97592.84
2022-11-04T18:38:34.018Z,97587.75
2022-11-04T18:41:36.803Z,97579.22
2022-11-04T18:44:39.413Z,97591.53
2022-11-04T18:47:42.068Z,97592.34
2022-11-04T18:50:45.472Z,97585.97
2022-11-04T18:53:49.716Z,97596.16
2022-11-04T18:56:52.370Z,97600.19
2022-11-04T18:59:55.137Z,97606.38
2022-11-04T19:02:57.961Z,97602.88
2022-11-04T19:06:06.068Z,97608.75
2022-11-04T19:09:45.551Z,97609.03
2022-11-04T19:12:52.138Z,97603.16
2022-11-04T19:15:54.851Z,97615.25
2022-11-04T19:18:59.796Z,97622.22
2022-11-04T19:22:02.459Z,97630.78
2022-11-04T19:25:07.507Z,97632.66
2022-11-04T19:28:34.733Z,97642.84
2022-11-04T19:31:36.219Z,97647.09
2022-11-04T19:34:38.829Z,97648.22
2022-11-04T19:37:41.816Z,97653.84
2022-11-04T19:40:51.715Z,97660.56
2022-11-04T19:43:53.687Z,97663.03
2022-11-04T19:46:56.372Z,97668.66
2022-11-04T19:49:58.999Z,97676.72
2022-11-04T19:53:01.873Z,97682.06
2022-11-04T19:56:06.463Z,97687.44
2022-11-04T19:59:10.087Z,97688.19
2022-11-04T20:02:15.110Z,97687.94
2022-11-04T20:05:18.104Z,97698.44
2022-11-04T20:08:20.744Z,97702.16
2022-11-04T20:11:24.738Z,97703.50
2022-11-04T20:14:28.664Z,97701.94
2022-11-04T20:17:32.619Z,97709.97
2022-11-04T20:20:36.579Z,97712.41
2022-11-04T20:23:39.301Z,97714.06
2022-11-04T20:26:44.128Z,97722.09
2022-11-04T20:29:46.781Z,97722.38
2022-11-04T20:32:49.559Z,97729.91
2022-11-04T20:35:52.316Z,97739.53
2022-11-04T20:38:57.244Z,97749.44
2022-11-04T20:42:01.590Z,97753.44
2022-11-04T20:45:05.120Z,97762.03
2022-11-04T20:48:08.298Z,97761.22
2022-11-04T20:51:13.660Z,97765.53
2022-11-04T20:54:16.966Z,97763.38
2022-11-04T20:57:21.590Z,97761.22
2022-11-04T21:00:24.368Z,97775.38
2022-11-04T21:03:27.265Z,97771.91
2022-11-04T21:06:30.651Z,97770.03
2022-11-04T21:09:33.434Z,97779.38
2022-11-04T21:12:37.648Z,97781.53
2022-11-04T21:15:44.094Z,97777.97
2022-11-04T21:18:46.749Z,97783.88
2022-11-04T21:21:49.389Z,97784.16
2022-11-04T21:24:52.112Z,97793.25
2022-11-04T21:27:56.257Z,97798.34
2022-11-04T21:31:04.505Z,97796.19
2022-11-04T21:34:07.413Z,97794.06
2022-11-04T21:37:10.076Z,97793.53
2022-11-04T21:40:13.387Z,97796.22
2022-11-04T21:43:17.380Z,97799.41
2022-11-04T21:46:20.130Z,97808.03
2022-11-04T21:49:54.080Z,97814.19
2022-11-04T21:52:58.117Z,97815.50
2022-11-04T21:56:05.912Z,97813.63
2022-11-04T21:59:16.963Z,97824.56
2022-11-04T22:02:21.060Z,97824.56
2022-11-04T22:05:23.820Z,97828.91
2022-11-04T22:08:26.500Z,97822.97
2022-11-04T22:11:31.260Z,97829.13
2022-11-04T22:14:35.238Z,97831.00
2022-11-04T22:17:38.009Z,97837.41
2022-11-04T22:20:40.616Z,97823.50
2022-11-04T22:23:43.980Z,97825.38
2022-11-04T22:26:47.599Z,97828.91
2022-11-04T22:29:51.664Z,97831.03
2022-11-04T22:32:54.466Z,97832.09
2022-11-04T22:35:57.126Z,97839.31
2022-11-04T22:39:00.281Z,97836.63
2022-11-04T22:42:03.160Z,97837.16
2022-11-04T22:45:13.837Z,97842.53
2022-11-04T22:48:19.393Z,97840.41
2022-11-04T22:51:22.101Z,97845.47
2022-11-04T22:54:24.790Z,97847.88
2022-11-04T22:57:27.505Z,97851.94
2022-11-04T23:00:31.852Z,97850.88
2022-11-04T23:03:34.609Z,97850.66
2022-11-04T23:06:37.334Z,97852.28
2022-11-04T23:10:00.031Z,97859.50
2022-11-04T23:13:20.375Z,97862.19
2022-11-04T23:16:56.970Z,97871.53
2022-11-04T23:20:00.525Z,97860.50
2022-11-04T23:23:20.764Z,97857.53
2022-11-04T23:26:27.516Z,97856.75
2022-11-04T23:29:47.872Z,97857.06
2022-11-04T23:32:53.209Z,97861.63
2022-11-04T23:36:13.298Z,97862.72
2022-11-04T23:39:16.717Z,97863.25
2022-11-04T23:42:21.293Z,97863.75
2022-11-04T23:45:41.998Z,97874.81
2022-11-04T23:49:03.967Z,97871.59
2022-11-04T23:52:24.022Z,97875.88
2022-11-04T23:55:44.131Z,97878.28
2022-11-04T23:59:05.466Z,97882.31
